Flight Track Log - Related Links

Times and Time Zones

All times are in EST time to prevent confusion due to time zone crossing. See the TAM3422 flight status page for this flight to view local times or setup timezone preferences in your user account.

Time Position Orientation Groundspeed Altitude Reporting Facility
EST Latitude Longitude Course Direction KTS MPH feet Rate Location/Type
Sat 12:27:59 PM -19.0960 -42.7450 68° East 429 494 27,300  Level FlightAware ADS-B
Sat 12:28:34 PM -19.0700 -42.6760 68° East 428 493 28,100 988 Climbing FlightAware ADS-B
Sat 12:29:24 PM -19.0320 -42.5770 68° East 442 509 28,700 565 Climbing FlightAware ADS-B
Sat 12:29:59 PM -19.0050 -42.5060 68° East 457 526 28,900 429 Climbing FlightAware ADS-B
Sat 12:30:34 PM -18.9790 -42.4380 68° East 466 536 29,200 675 Climbing FlightAware ADS-B
Sat 12:31:19 PM -18.9400 -42.3380 68° East 471 542 29,800 558 Climbing FlightAware ADS-B
Sat 12:32:00 PM -18.9090 -42.2600 67° East 473 544 30,000 701 Climbing FlightAware ADS-B
Sat 12:32:36 PM -18.8790 -42.1830 68° East 470 541 30,700 600 Climbing FlightAware ADS-B
Sat 12:33:10 PM -18.8550 -42.1220 67° East 470 541 30,700 1,541 Level FlightAware ADS-B
Sat 12:33:50 PM -18.8170 -42.0200 69° East 462 532 32,600 1,946 Climbing FlightAware ADS-B
Sat 12:34:24 PM -18.7900 -41.9510 68° East 464 534 33,100 970 Climbing FlightAware ADS-B
Sat 12:35:29 PM -18.7370 -41.8130 68° East 462 532 34,200 876 Climbing FlightAware ADS-B
Sat 12:35:53 PM -18.7170 -41.7620 68° East 463 533 34,400 610 Climbing FlightAware ADS-B
Sat 12:36:28 PM -18.6910 -41.6970 67° East 466 536 34,800 424 Climbing FlightAware ADS-B
Sat 12:37:18 PM -18.6500 -41.5920 68° East 468 539 35,000 114 Climbing FlightAware ADS-B
Sat 12:38:13 PM -18.6040 -41.4730 68° East 465 535 35,000  Level FlightAware ADS-B
Sat 12:38:43 PM -18.5780 -41.4060 68° East 464 534 35,000  Level FlightAware ADS-B
Sat 12:39:13 PM -18.5530 -41.3440 67° East 462 532 35,000  Level FlightAware ADS-B
Sat 12:39:38 PM -18.5320 -41.2900 68° East 460 529 35,000  Level FlightAware ADS-B
Sat 12:40:48 PM -18.4750 -41.1460 67° East 457 526 35,000  Level FlightAware ADS-B
Sat 12:41:55 PM -18.4240 -41.0170 67° East 456 525 35,000  Level FlightAware ADS-B
Sat 12:42:20 PM -18.4070 -40.9730 68° East 456 525 35,000  Level FlightAware ADS-B
Sat 12:43:34 PM -18.3550 -40.8440 67° East 456 525 35,000  Level FlightAware ADS-B
Sat 12:44:20 PM -18.3230 -40.7640 67° East 456 525 35,000  Level FlightAware ADS-B
Sat 12:45:09 PM -18.2880 -40.6790 67° East 456 525 35,000  Level FlightAware ADS-B
Sat 12:45:45 PM -18.2630 -40.6170 67° East 456 525 35,000  Level FlightAware ADS-B
Sat 12:46:21 PM -18.2380 -40.5540 67° East 456 525 35,000  Level FlightAware ADS-B
Sat 12:46:46 PM -18.2200 -40.5110 66° East 456 525 35,000  Level FlightAware ADS-B
Sat 12:47:11 PM -18.2030 -40.4670 68° East 456 525 35,000  Level FlightAware ADS-B
Sat 12:48:11 PM -18.1610 -40.3630 67° East 456 525 35,000  Level FlightAware ADS-B
Sat 12:49:11 PM -18.1190 -40.2590 67° East 456 525 35,000  Level FlightAware ADS-B
Sat 12:50:00 PM -18.0840 -40.1740 67° East 456 525 35,000  Level FlightAware ADS-B
Sat 12:51:00 PM -18.0420 -40.0700 67° East 456 525 35,000  Level FlightAware ADS-B
Sat 12:51:38 PM -18.0160 -40.0040 68° East 456 525 35,000  Level FlightAware ADS-B
Sat 12:51:50 PM -18.0070 -39.9830 66° East 456 525 35,000  Level FlightAware ADS-B
Sat 12:55:00 PM -17.7465 -39.8319 29° Northeast  Level Estimated
Sat 12:56:00 PM -17.6642 -39.7843 29° Northeast  Level Estimated
Sat 12:57:00 PM -17.5819 -39.7367 29° Northeast  Level Estimated
Sat 12:58:00 PM -17.4995 -39.6892 29° Northeast  Level Estimated
Sat 12:59:00 PM -17.4172 -39.6417 29° Northeast  Level Estimated
Sat 01:00:00 PM -17.3349 -39.5942 29° Northeast  Level Estimated
Sat 01:01:00 PM -17.2525 -39.5468 29° Northeast  Level Estimated
Sat 01:02:00 PM -17.1701 -39.4995 29° Northeast  Level Estimated
Sat 01:03:00 PM -17.0877 -39.4521 29° Northeast  Level Estimated
Sat 01:04:00 PM -17.0054 -39.4049 29° Northeast  Level Estimated
Sat 01:05:00 PM -16.9230 -39.3576 29° Northeast  Level Estimated
Sat 01:06:00 PM -16.8405 -39.3104 29° Northeast  Level Estimated
Sat 01:07:00 PM -16.7581 -39.2633 29° Northeast  Level Estimated
Sat 01:08:00 PM -16.6757 -39.2161 29° Northeast  Level Estimated
Sat 01:09:00 PM -16.5933 -39.1691 29° Northeast  Level Estimated
Sat 01:10:00 PM -16.5108 -39.1221 29° Northeast  Level Estimated
Sat 01:11:00 PM -16.4386 -39.0809 29° Northeast  Level Estimated
Sat 01:12:00 PM -16.4386 -39.0809 71° East  Level Estimated
Sat 01:13:00 PM -16.4386 -39.0809 71° East  Level Estimated
Sat 01:14:00 PM -16.4386 -39.0809 71° East  Level Estimated
Sat 01:15:00 PM -16.4386 -39.0809 71° East  Level Estimated
Sat 01:16:00 PM -16.4386 -39.0809 71° East  Level Estimated
Sat 01:17:00 PM -16.4386 -39.0809 71° East  Level Estimated
Sat 01:18:00 PM -16.4386 -39.0809 71° East  Level Estimated
Sat 01:19:00 PM -16.4386 -39.0809 71° East  Level Estimated
Sat 01:20:00 PM -16.4386 -39.0809 71° East  Level Estimated
Sat 01:21:00 PM -16.4386 -39.0809 71° East  Level Estimated
Sat 01:22:00 PM -16.4386 -39.0809 71° East  Level Estimated
Sat 01:23:00 PM -16.4386 -39.0809 71° East  Level Estimated
Sat 01:24:00 PM -16.4386 -39.0809 71° East  Level Estimated
Sat 01:25:00 PM -16.4386 -39.0809 71° East  Level Estimated
Sat 01:26:00 PM -16.4386 -39.0809 71° East  Level Estimated
Sat 01:27:00 PM -16.4386 -39.0809 71° East  Level Estimated
Sat 01:28:00 PM -16.4386 -39.0809 71° East  Level Estimated
Sat 01:29:00 PM -16.4386 -39.0809 71° East  Level Estimated

Login

Don't have an account? Register now (free) for customized features, flight alerts, and more!